Date,TemperatureHighF,TemperatureAvgF,TemperatureLowF,DewpointHighF,DewpointAvgF,DewpointLowF,HumidityHigh,HumidityAvg,HumidityLow,PressureMaxIn,PressureMinIn,WindSpeedMaxMPH,WindSpeedAvgMPH,GustSpeedMaxMPH,PrecipitationSumIn
2012-1-1,42.6,37.2,33.0,37.8,33.4,29.8,89,86,80,29.94,29.50,13,1,13,0.00
2012-1-2,41.3,32.8,25.1,38.3,24.5,13.2,89,72,59,29.58,29.43,12,1,12,0.00
2012-1-3,25.1,15.5,3.9,13.2,4.0,-5.6,66,60,53,29.91,29.57,21,1,21,0.00
2012-1-4,19.5,10.7,0.0,6.1,-0.3,-8.2,70,61,53,29.94,29.74,7,0,7,0.00
2012-1-5,30.7,22.2,13.8,21.2,12.8,6.0,75,67,57,29.77,29.60,12,0,12,0.00
2012-1-6,35.7,25.2,13.1,26.5,18.5,6.6,80,76,68,29.76,29.58,9,0,9,0.00
2012-1-7,47.8,33.8,23.7,37.4,27.0,18.7,84,76,65,29.77,29.55,9,0,9,0.00
2012-1-8,35.7,30.9,18.1,27.6,21.1,10.4,76,67,61,30.13,29.76,8,0,8,0.00
2012-1-9,32.5,22.7,14.9,20.2,14.0,8.3,78,69,58,30.15,29.80,9,0,9,0.00
2012-1-10,39.9,30.0,20.8,28.2,20.7,13.3,76,68,61,29.83,29.63,10,0,10,0.00
2012-1-11,34.3,27.0,18.3,23.7,18.9,12.5,80,72,63,29.98,29.83,13,0,13,0.00
2012-1-12,30.7,29.4,26.7,26.4,24.3,21.6,84,81,75,29.91,29.44,15,1,15,0.00
2012-1-13,34.3,28.8,22.4,29.8,24.0,16.8,86,82,74,29.44,29.01,0,0,0,0.00
2012-1-14,26.9,18.4,3.0,21.0,10.2,-4.2,79,70,59,29.89,29.40,0,0,0,0.00
2012-1-15,11.1,1.4,-5.6,-0.8,-7.6,-13.6,71,66,56,30.35,29.89,0,0,0,0.00
2012-1-16,25.3,9.7,-9.5,17.0,-0.6,-16.7,73,63,50,30.37,29.93,15,1,15,0.00
2012-1-17,38.3,31.2,25.1,35.3,26.1,17.0,89,82,71,29.93,29.26,13,1,13,0.00
2012-1-18,39.3,25.3,10.2,36.3,14.3,0.0,89,63,51,30.00,29.25,28,2,28,0.00
2012-1-19,25.5,14.8,0.3,15.9,5.7,-7.2,78,67,57,30.11,29.79,13,1,13,0.00
2012-1-20,26.4,17.6,8.4,16.0,7.9,-1.5,80,66,49,30.11,29.76,11,0,11,0.00
2012-1-21,18.1,11.5,0.3,9.6,2.9,-6.6,73,68,61,30.20,29.97,2,0,2,0.00
2012-1-22,28.9,10.8,-4.7,14.7,1.6,-11.5,75,67,52,30.38,30.20,4,0,4,0.00
2012-1-23,35.7,28.2,17.2,32.2,23.1,10.0,88,81,73,30.33,29.73,13,0,13,0.00
2012-1-24,45.1,37.6,32.9,40.2,32.2,24.8,89,81,70,29.92,29.71,8,0,8,0.00
2012-1-25,33.0,30.6,27.1,25.9,22.7,20.3,79,72,68,30.08,29.91,11,0,11,0.00
2012-1-26,38.1,31.1,24.0,25.2,22.1,18.2,79,70,54,30.07,29.82,9,0,9,0.00
2012-1-27,35.7,33.6,29.6,31.7,29.4,23.9,87,85,79,29.82,29.20,12,0,12,0.00
2012-1-28,42.8,34.9,30.3,30.4,26.5,23.2,81,71,60,29.86,29.53,10,1,10,0.00
2012-1-29,36.8,30.1,23.7,23.2,17.2,14.2,71,59,47,29.92,29.73,13,1,13,0.00
2012-1-30,34.3,25.1,14.9,21.2,14.2,6.3,79,64,46,30.13,29.78,17,1,17,0.00
2012-1-31,35.4,27.3,15.6,25.5,19.8,7.8,79,73,66,30.12,29.87,6,0,6,0.00
2012-2-1,45.1,35.3,28.5,38.3,29.1,22.2,84,78,72,29.87,29.63,7,0,7,0.00
2012-2-2,35.7,31.0,20.4,28.6,22.7,11.1,77,71,67,30.10,29.83,9,0,9,0.00
2012-2-3,33.4,24.6,15.2,19.9,13.8,7.6,73,64,50,30.23,30.09,8,0,8,0.00
2012-2-4,34.3,26.2,14.7,22.3,16.4,6.7,78,67,52,30.09,30.01,13,0,13,0.00
2012-2-5,31.6,19.4,7.7,15.8,8.9,1.1,76,64,49,30.02,29.92,7,0,7,0.00
2012-2-6,45.3,30.9,14.7,27.8,19.3,7.5,77,63,46,29.92,29.71,12,1,12,0.00
2012-2-7,37.5,29.7,19.4,28.2,20.4,9.0,77,68,59,30.12,29.76,13,0,13,0.00
2012-2-8,34.8,23.8,8.9,16.1,10.3,1.7,74,57,41,30.14,29.91,5,0,5,0.00
2012-2-9,41.7,29.6,21.0,21.9,16.3,11.7,70,58,41,29.98,29.85,8,0,8,0.00
2012-2-10,43.5,29.4,15.0,26.4,17.6,8.5,77,63,44,29.98,29.76,12,0,12,0.00
2012-2-11,36.5,29.0,14.7,25.0,18.6,4.6,73,65,56,29.76,29.48,22,0,22,0.00
2012-2-12,18.6,11.6,7.1,4.6,-1.1,-4.3,65,56,49,29.70,29.52,17,1,17,0.00
2012-2-13,35.2,22.4,6.4,18.9,10.5,-3.7,70,60,50,30.10,29.62,13,1,13,0.00
2012-2-14,36.3,25.8,13.1,22.9,16.7,6.3,77,69,57,30.23,30.10,10,0,10,0.00
2012-2-15,44.0,34.6,28.2,29.3,24.7,20.9,75,68,52,30.39,30.22,4,0,4,0.00
2012-2-16,41.9,33.4,24.9,30.2,26.1,19.4,84,75,60,30.40,30.13,10,0,10,0.00
2012-2-17,44.7,35.5,27.6,36.6,26.9,19.5,87,72,51,30.13,30.02,9,0,9,0.00
2012-2-18,41.9,33.0,27.5,24.3,21.4,19.0,72,63,48,30.12,29.97,17,0,17,0.00
2012-2-19,38.4,29.1,21.5,22.4,17.5,13.1,76,62,46,30.21,30.12,12,0,12,0.00
2012-2-20,36.1,25.9,18.8,15.8,12.8,10.2,69,58,41,30.43,30.14,13,1,13,0.00
2012-2-21,39.3,27.2,12.3,27.5,15.9,5.6,81,64,44,30.45,29.96,15,1,15,0.00
2012-2-22,49.2,36.8,28.7,36.8,26.9,21.1,83,69,45,29.97,29.65,13,0,13,0.00
2012-2-23,44.0,34.5,27.6,35.4,26.3,20.1,84,72,52,29.94,29.54,15,0,15,0.00
2012-2-24,33.4,30.8,26.7,28.8,24.6,20.1,84,78,69,29.94,28.65,11,0,11,0.00
2012-2-25,35.4,30.0,20.4,28.3,22.7,12.5,85,74,63,29.21,28.58,17,1,17,0.00
2012-2-26,32.9,23.1,14.7,12.8,8.7,4.6,71,55,37,29.78,29.21,11,1,11,0.00
2012-2-27,39.7,28.1,10.2,28.4,18.1,3.1,76,66,54,29.79,29.42,13,1,13,0.00
2012-2-28,37.9,32.2,23.1,27.0,19.6,13.4,68,60,46,30.50,29.43,17,1,17,0.00
2012-2-29,31.2,26.9,22.6,23.2,19.5,14.1,80,73,68,30.48,30.07,1,0,1,0.00
2012-3-1,28.5,24.9,20.1,23.4,19.1,14.2,82,78,73,30.17,29.93,0,0,0,0.00
2012-3-2,31.1,25.3,20.4,22.8,18.9,14.6,82,77,70,30.24,30.05,10,1,10,0.00
2012-3-3,41.7,32.8,26.7,36.3,27.9,21.9,86,82,68,30.05,29.51,10,1,10,0.00
2012-3-4,41.5,31.0,21.9,26.7,20.1,14.1,77,64,48,29.78,29.68,8,0,8,0.00
2012-3-5,30.7,21.8,8.7,14.4,9.7,-0.8,72,60,47,30.43,29.77,12,1,12,0.00
2012-3-6,35.4,18.4,-1.4,12.6,4.3,-9.2,73,56,34,30.66,30.43,8,0,8,0.00
2012-3-7,53.7,37.1,19.2,31.4,23.3,9.2,74,58,42,30.63,30.33,12,1,12,0.00
2012-3-8,63.1,50.2,35.4,45.6,39.0,27.5,82,66,52,30.33,29.80,21,2,21,0.00
2012-3-9,45.3,35.0,28.5,37.5,22.8,17.3,76,62,45,30.25,29.91,12,1,12,0.00
2012-3-10,36.6,28.8,23.0,25.4,18.3,14.1,77,65,50,30.59,30.25,12,0,12,0.00
2012-3-11,55.7,37.2,22.8,31.7,22.7,15.4,74,58,39,30.56,30.37,9,1,11,0.00
2012-3-12,65.3,43.6,26.2,39.6,29.2,19.7,79,60,36,30.42,30.26,8,0,8,0.00
2012-3-13,66.9,50.2,38.3,50.3,39.7,30.2,78,68,54,30.26,30.05,58,1,58,0.00
2012-3-14,59.5,43.5,31.4,41.0,32.1,26.3,85,66,41,30.38,30.14,13,0,13,0.00
2012-3-15,48.3,40.4,35.4,37.8,33.0,29.5,81,75,65,30.47,30.37,7,0,7,0.00
2012-3-16,40.2,37.5,34.8,36.3,33.2,29.5,87,84,78,30.45,30.22,11,0,11,0.00
2012-3-17,53.4,42.0,32.1,42.2,36.1,27.0,88,80,64,30.50,30.33,22,0,22,0.00
2012-3-18,76.6,50.5,30.5,53.8,39.8,25.9,88,70,41,30.46,30.30,10,0,10,0.00
2012-3-19,75.7,53.7,35.4,55.2,42.2,30.1,84,67,46,30.42,30.30,7,0,7,0.00
2012-3-20,78.2,56.4,36.6,57.3,43.6,30.4,81,64,43,30.47,30.39,11,0,11,0.00
2012-3-21,80.6,58.9,39.3,57.7,43.8,33.9,83,62,24,30.50,30.39,7,0,7,0.00
2012-3-22,80.2,60.0,41.1,58.8,46.4,35.4,85,64,37,30.41,30.21,9,0,9,0.00
2012-3-23,70.8,57.4,46.2,48.5,38.8,25.8,80,53,30,30.33,30.22,17,1,17,0.00
2012-3-24,58.8,47.4,42.9,31.0,24.7,20.5,59,42,29,30.30,30.19,7,0,7,0.00
2012-3-25,47.8,43.2,40.6,38.9,35.3,30.4,81,74,59,30.20,29.88,4,0,4,0.00
2012-3-26,42.6,34.5,24.9,37.1,21.7,5.5,84,61,43,30.15,29.78,16,2,16,0.00
2012-3-27,42.9,29.4,18.5,10.8,5.6,0.9,48,37,24,30.34,30.15,16,1,16,0.00
2012-3-28,45.3,36.0,28.0,33.0,23.0,10.8,79,60,44,30.28,29.72,12,0,12,0.00
2012-3-29,40.1,36.7,31.2,34.1,28.9,22.9,83,73,62,30.07,29.72,12,0,12,0.00
2012-3-30,46.5,36.1,28.5,24.1,18.5,14.7,73,51,31,30.18,30.07,12,1,12,0.00
2012-3-31,49.6,35.7,27.6,32.5,23.1,16.4,71,60,50,30.17,30.03,4,0,4,0.00
2012-4-1,50.1,35.7,21.9,34.8,25.7,15.7,79,68,48,30.05,29.81,7,0,7,0.00
2012-4-2,50.7,38.6,27.1,32.0,23.8,12.5,82,59,33,29.99,29.79,16,1,16,0.00
2012-4-3,53.9,37.8,22.4,21.8,16.8,12.8,69,45,25,30.02,29.90,18,1,18,0.00
2012-4-4,58.6,42.5,28.2,28.5,24.1,16.1,69,50,29,29.91,29.67,16,1,16,0.00
2012-4-5,44.2,34.9,26.9,25.5,22.4,15.9,74,61,47,30.06,29.82,22,1,22,0.00
2012-4-6,49.2,34.2,21.0,25.8,18.4,13.7,77,55,35,30.15,30.03,15,1,15,0.00
2012-4-7,54.3,39.1,23.7,25.9,20.3,14.3,70,48,33,30.18,30.09,13,1,13,0.00
2012-4-8,49.2,40.3,32.3,27.6,23.8,20.7,63,52,42,30.15,29.75,11,1,11,0.00
2012-4-9,48.3,38.7,28.2,32.7,28.6,19.6,77,67,54,29.77,29.63,13,1,13,0.00
2012-4-10,50.1,41.0,32.1,33.9,29.3,23.4,74,64,51,29.94,29.72,12,0,12,0.00
2012-4-11,54.8,39.2,24.9,37.5,28.0,18.7,79,66,43,30.07,29.92,5,0,5,0.00
2012-4-12,57.3,41.7,30.7,38.9,30.5,26.2,85,67,39,30.26,30.07,13,1,13,0.00
2012-4-13,62.7,44.0,26.9,36.6,26.4,20.8,80,54,28,30.29,30.18,13,1,13,0.00
2012-4-14,68.1,48.2,27.1,35.2,26.5,18.9,73,47,23,30.30,30.14,13,0,13,0.00
2012-4-15,73.0,57.5,36.1,51.7,42.0,26.5,70,57,45,30.18,30.08,12,1,12,0.00
2012-4-16,87.6,71.2,55.4,60.3,52.7,48.3,83,56,31,30.18,30.04,17,2,17,0.00
2012-4-17,75.0,63.8,46.9,50.2,40.2,24.4,72,44,25,30.34,30.07,15,1,15,0.00
2012-4-18,58.8,46.8,34.3,32.4,27.5,22.9,65,48,36,30.40,30.26,10,0,10,0.00
2012-4-19,72.1,50.2,28.2,42.9,30.9,20.6,75,51,28,30.26,30.10,12,0,12,0.00
2012-4-20,78.6,58.5,36.1,49.6,39.7,27.9,76,53,30,30.15,30.02,24,2,24,0.00
2012-4-21,73.9,61.1,47.4,53.9,47.9,40.2,77,63,49,30.04,29.82,24,2,24,0.00
2012-4-22,47.4,42.7,39.9,40.6,37.4,35.7,86,82,77,30.00,29.84,7,0,7,0.00
2012-4-23,60.2,48.2,37.5,53.6,42.8,33.4,88,82,74,29.85,29.43,18,1,18,0.00
2012-4-24,51.4,43.4,37.9,38.5,33.5,30.9,80,69,53,29.84,29.49,16,2,16,0.00
2012-4-25,55.5,42.5,30.7,36.3,30.4,25.5,84,64,45,30.03,29.83,18,0,18,0.00
2012-4-26,61.1,45.9,28.2,42.9,32.6,21.5,82,62,37,30.07,29.73,13,1,13,0.00
2012-4-27,48.7,42.1,33.0,43.5,31.7,20.4,84,67,52,30.17,29.70,15,1,15,0.00
2012-4-28,52.7,40.2,29.8,24.8,19.9,16.2,62,46,28,30.25,30.15,12,1,12,0.00
2012-4-29,55.0,39.9,25.1,25.2,18.5,13.9,72,45,24,30.37,30.17,18,1,18,0.00
2012-4-30,63.6,47.2,30.2,30.7,23.6,15.1,56,41,27,30.46,30.31,11,0,11,0.00
2012-5-1,49.6,42.9,39.9,39.6,35.8,29.2,82,77,46,30.33,30.22,6,0,6,0.00
2012-5-2,55.0,45.9,40.6,45.4,39.6,35.6,84,79,68,30.35,30.29,0,0,0,0.00
2012-5-3,53.4,47.9,42.6,46.9,43.0,38.3,87,83,78,30.32,30.23,0,0,0,0.00
2012-5-4,58.8,51.9,48.0,53.9,48.0,44.5,90,87,82,30.28,30.08,4,0,4,0.00
2012-5-5,67.1,54.5,42.0,51.3,45.4,35.3,90,73,47,30.27,30.10,11,0,11,0.00
2012-5-6,70.5,53.6,39.3,48.8,40.7,33.4,83,64,37,30.28,30.20,7,0,7,0.00
2012-5-7,73.9,54.9,32.5,47.9,38.7,26.7,82,58,33,30.29,30.19,10,0,10,0.00
2012-5-8,55.7,49.8,44.0,50.2,44.5,38.7,89,83,64,30.22,29.99,13,1,13,0.00
2012-5-9,61.3,57.0,53.2,56.7,53.2,50.0,90,87,83,30.00,29.79,13,0,13,0.00
2012-5-10,59.9,51.0,43.3,51.9,46.4,38.8,89,84,71,29.86,29.60,7,0,7,0.00
2012-5-11,63.3,49.3,38.4,40.4,37.1,30.2,84,65,39,30.21,29.85,8,0,8,0.00
2012-5-12,77.7,54.3,30.7,46.7,37.3,25.3,83,57,31,30.32,30.21,12,0,12,0.00
2012-5-13,81.1,62.3,44.4,54.1,46.4,38.1,80,59,35,30.32,30.24,7,0,7,0.00
2012-5-14,68.3,60.6,52.8,57.9,53.1,45.1,86,77,66,30.32,30.28,7,0,7,0.00
2012-5-15,64.0,58.5,56.6,57.3,54.4,53.0,89,86,78,30.31,30.14,7,0,7,0.00
2012-5-16,72.6,60.6,54.3,61.9,55.4,51.1,90,83,68,30.15,29.97,10,0,10,0.00
2012-5-17,66.3,53.4,40.6,52.4,40.7,33.2,88,65,38,30.33,30.07,8,0,8,0.00
2012-5-18,75.2,53.6,33.2,47.6,38.2,27.8,83,60,30,30.40,30.31,7,0,7,0.00
2012-5-19,83.1,60.8,39.9,53.0,44.8,33.9,83,59,33,30.36,30.30,7,0,7,0.00
2012-5-20,87.9,66.4,46.9,58.6,50.4,40.6,81,60,35,30.47,30.36,9,0,9,0.00
2012-5-21,76.8,63.0,46.5,59.2,51.7,39.9,80,67,53,30.47,30.25,22,0,22,0.00
2012-5-22,69.4,63.1,57.5,60.4,56.4,52.4,84,79,70,30.25,30.04,4,0,4,0.00
2012-5-23,81.1,66.2,55.2,64.2,57.7,51.0,87,75,53,30.25,30.05,2,0,2,0.00
2012-5-24,72.6,64.6,58.1,64.1,58.7,52.8,87,81,67,30.41,30.25,8,0,8,0.00
2012-5-25,69.4,63.4,57.7,63.1,59.0,53.5,88,86,79,30.41,30.26,8,0,8,0.00
2012-5-26,85.4,69.7,57.0,66.7,57.7,49.6,90,69,33,30.33,30.25,7,0,7,0.00
2012-5-27,82.5,65.8,49.2,60.0,53.0,44.2,85,66,42,30.38,30.21,6,0,6,0.00
2012-5-28,84.9,68.7,55.5,64.1,56.5,49.7,82,66,48,30.23,30.09,7,0,7,0.00
2012-5-29,79.8,66.4,61.8,66.0,59.1,54.5,87,78,60,30.11,29.90,9,1,9,0.00
2012-5-30,78.4,66.0,60.0,63.8,58.7,55.0,89,78,55,29.96,29.89,4,0,4,0.00
2012-5-31,76.8,63.5,53.4,56.2,51.8,43.2,88,68,43,30.16,29.94,7,0,7,0.00
2012-6-1,73.2,58.5,44.2,51.6,45.4,38.6,83,63,44,30.25,30.15,7,0,7,0.00
2012-6-2,55.2,52.6,48.0,51.5,45.8,37.3,88,79,52,30.15,29.89,11,0,11,0.00
2012-6-3,67.2,56.6,50.7,56.7,50.0,44.4,89,79,63,29.92,29.86,2,0,2,0.00
2012-6-4,52.5,49.2,46.7,47.9,44.7,42.9,87,85,80,30.01,29.84,5,0,5,0.00
2012-6-5,60.9,51.1,45.3,51.9,46.4,42.0,90,84,73,30.10,29.98,0,0,0,0.00
2012-6-6,66.7,53.9,45.1,55.4,47.9,41.2,89,80,61,30.17,30.09,3,0,3,0.00
2012-6-7,68.3,55.7,47.6,58.8,50.1,43.6,89,82,66,30.15,30.09,4,0,4,0.00
2012-6-8,76.8,59.0,45.3,60.9,51.0,41.7,89,76,49,30.12,29.94,6,0,6,0.00
2012-6-9,77.9,60.2,45.1,56.4,49.3,41.0,88,70,43,30.17,29.99,4,0,4,0.00
2012-6-10,81.8,63.2,46.5,58.9,50.9,41.7,85,66,42,30.38,30.17,2,0,2,0.00
2012-6-11,76.8,64.0,55.0,55.2,50.6,46.5,77,63,45,30.44,30.35,12,0,12,0.00
2012-6-12,73.9,61.9,54.3,58.6,54.1,47.5,88,76,59,30.36,30.11,12,0,12,0.00
2012-6-13,73.0,62.7,53.4,65.4,57.3,48.0,91,83,64,30.30,30.06,7,0,7,0.00
2012-6-14,76.8,60.8,47.8,59.5,50.4,44.0,88,70,49,30.46,30.30,4,0,4,0.00
2012-6-15,79.3,60.8,44.6,54.5,47.4,39.4,87,64,40,30.51,30.45,3,0,3,0.00
2012-6-16,78.0,61.1,45.6,59.5,50.2,40.2,84,69,49,30.52,30.42,6,0,6,0.00
2012-6-17,77.5,60.8,46.2,58.1,49.4,41.3,85,68,49,30.46,30.26,7,0,7,0.00
2012-6-18,73.5,60.9,52.3,55.2,50.1,45.1,80,69,50,30.32,30.25,4,0,4,0.00
2012-6-19,78.6,63.6,48.0,64.3,55.7,42.7,87,76,61,30.31,30.20,7,0,7,0.00
2012-6-20,93.0,75.6,61.8,74.6,66.9,57.9,88,76,52,30.23,30.13,4,0,4,0.00
2012-6-21,90.1,76.5,64.7,72.4,66.5,60.1,87,73,50,30.14,29.98,6,0,6,0.00
2012-6-22,89.7,73.6,60.0,68.9,62.4,55.5,87,70,49,30.03,29.95,8,0,8,0.00
2012-6-23,84.9,68.1,57.3,61.9,56.8,50.9,84,69,44,30.16,30.02,6,0,6,0.00
2012-6-24,83.4,65.9,50.1,57.3,52.2,45.1,86,64,37,30.17,30.08,6,0,6,0.00
2012-6-25,68.5,61.0,55.9,62.4,55.7,51.7,87,83,74,30.08,29.86,4,0,4,0.00
2012-6-26,60.0,55.5,51.9,55.9,51.4,48.3,88,86,82,29.88,29.79,5,0,5,0.00
2012-6-27,68.5,58.6,53.2,57.7,53.2,49.7,90,82,66,29.95,29.75,4,0,4,0.00
2012-6-28,78.6,64.3,51.4,62.6,55.3,47.6,89,74,51,29.96,29.90,4,0,4,0.00
2012-6-29,87.6,67.9,54.3,72.4,58.5,49.4,90,73,47,29.92,29.78,7,0,7,0.00
2012-6-30,85.1,68.7,51.8,64.0,56.2,46.7,86,67,45,29.96,29.87,7,0,7,0.00
2012-7-1,87.6,70.1,56.1,63.1,57.7,50.9,87,68,37,30.07,29.94,8,0,8,0.00
2012-7-2,80.0,66.7,58.8,63.5,57.8,53.6,86,74,49,30.13,30.06,3,0,3,0.00
2012-7-3,82.7,66.0,51.6,61.2,55.2,47.5,89,70,43,30.14,30.04,5,0,5,0.00
2012-7-4,84.7,70.0,58.8,70.3,62.6,52.7,89,78,60,30.04,29.91,5,0,5,0.00
2012-7-5,78.4,67.6,59.5,64.0,59.6,54.9,88,76,59,30.11,29.93,5,0,5,0.00
2012-7-6,85.6,68.8,53.2,66.9,59.4,48.5,88,74,49,30.14,30.05,0,0,0,0.00
2012-7-7,77.1,68.2,60.9,68.7,62.5,56.4,87,82,70,30.06,29.98,3,0,3,0.00
2012-7-8,82.9,68.2,56.4,64.5,56.5,48.8,90,68,45,30.11,30.02,6,0,6,0.00
2012-7-9,80.2,62.4,47.8,55.4,49.1,42.2,84,64,39,30.22,30.10,5,0,5,0.00
2012-7-10,82.7,61.6,43.7,58.0,48.8,37.9,82,65,38,30.31,30.20,7,0,7,0.00
2012-7-11,86.7,65.9,47.8,59.3,51.1,42.4,85,62,35,30.39,30.30,6,0,6,0.00
2012-7-12,90.3,69.9,53.7,64.9,55.3,47.5,85,63,35,30.39,30.31,5,0,5,0.00
2012-7-13,91.0,71.5,55.9,69.0,59.4,50.1,83,68,42,30.40,30.32,4,0,4,0.00
2012-7-14,88.7,72.9,62.7,68.7,61.6,56.4,85,69,47,30.38,30.29,0,0,0,0.00
2012-7-15,84.3,70.3,57.5,68.0,61.8,52.4,86,75,56,30.33,30.09,0,0,0,0.00
2012-7-16,84.2,72.0,63.8,71.6,65.6,59.9,89,81,62,30.09,29.99,0,0,0,0.00
2012-7-17,91.9,74.0,61.3,72.8,65.4,57.4,90,76,50,30.03,29.86,6,0,6,0.00
2012-7-18,84.9,71.5,61.5,69.0,64.1,53.1,89,78,59,30.17,29.93,3,0,3,0.00
2012-7-19,79.5,64.3,50.3,59.5,52.6,45.5,86,68,48,30.25,30.15,3,0,3,0.00
2012-7-20,78.0,63.0,52.7,58.6,52.3,46.8,83,69,49,30.29,30.23,6,0,6,0.00
2012-7-21,83.8,64.3,48.9,57.3,51.2,43.7,86,65,39,30.30,30.24,6,0,6,0.00
2012-7-22,85.8,69.7,55.5,65.0,57.4,49.7,85,67,46,30.32,30.25,22,0,22,0.00
2012-7-23,85.6,72.3,63.6,71.0,64.1,56.6,88,76,59,30.29,29.97,6,0,6,0.00
2012-7-24,83.1,71.0,58.2,70.5,62.9,50.5,90,77,60,29.98,29.80,6,0,6,0.00
2012-7-25,80.4,64.9,53.7,58.7,52.6,48.7,85,66,43,30.07,29.96,22,0,22,0.00
2012-7-26,73.2,64.4,57.3,64.4,58.1,50.3,88,80,72,30.02,29.83,4,0,4,0.00
2012-7-27,70.3,66.6,62.7,66.2,62.9,59.2,90,88,86,30.14,29.84,0,0,0,0.00
2012-7-28,74.8,65.6,59.5,68.3,61.9,56.3,91,88,79,30.20,30.13,0,0,0,0.00
2012-7-29,75.5,65.2,58.8,67.2,60.9,54.4,91,86,71,30.28,30.16,0,0,0,0.00
2012-7-30,84.0,67.9,56.3,67.4,60.0,52.5,91,77,55,30.31,30.26,0,0,0,0.00
2012-7-31,83.4,69.8,60.4,62.6,59.3,56.4,88,71,47,30.30,30.13,0,0,0,0.00
2012-8-1,82.0,68.7,58.8,67.5,61.2,53.9,88,78,60,30.14,30.03,22,0,22,0.00
2012-8-2,85.2,71.6,62.7,69.9,63.1,57.3,88,76,55,30.13,30.05,0,0,0,0.00
2012-8-3,87.6,71.3,58.8,70.5,62.9,54.3,88,76,54,30.32,30.12,0,0,0,0.00
2012-8-4,91.5,73.7,61.8,71.9,63.6,57.4,88,72,50,30.42,30.31,0,0,0,0.00
2012-8-5,86.9,72.8,62.9,71.2,66.2,57.0,89,81,59,30.42,30.11,22,1,22,0.00
2012-8-6,76.6,67.2,56.4,66.0,59.6,51.1,89,77,56,30.20,30.13,5,0,5,0.00
2012-8-7,83.1,65.2,49.8,63.2,55.1,45.7,88,72,47,30.21,30.15,6,0,6,0.00
2012-8-8,86.7,67.8,51.9,66.7,57.2,47.2,88,71,43,30.20,30.15,3,0,3,0.00
2012-8-9,86.9,69.7,59.5,70.2,63.1,54.7,88,80,54,30.18,30.09,2,0,2,0.00
2012-8-10,76.8,68.9,65.8,69.2,64.6,61.8,90,87,75,30.12,30.03,7,0,7,0.00
2012-8-11,76.6,68.4,62.9,71.4,64.9,60.0,92,89,82,30.12,30.04,2,0,2,0.00
2012-8-12,83.8,70.4,62.4,71.2,64.7,57.8,92,83,60,30.14,30.06,6,0,6,0.00
2012-8-13,81.3,67.3,56.4,65.3,59.4,52.9,90,77,56,30.17,30.11,7,0,7,0.00
2012-8-14,80.7,66.6,55.2,66.1,59.5,51.3,89,79,53,30.17,30.11,1,0,1,0.00
2012-8-15,79.8,68.5,61.7,67.9,62.8,57.6,90,82,63,30.12,30.06,4,0,4,0.00
2012-8-16,80.9,67.7,58.1,63.9,59.5,52.4,89,76,53,30.10,30.03,22,0,22,0.00
2012-8-17,83.6,66.4,51.4,67.8,58.5,47.0,89,77,56,30.07,29.96,7,0,7,0.00
2012-8-18,77.7,64.7,51.9,61.0,55.3,46.0,89,73,45,30.13,30.04,4,0,4,0.00
2012-8-19,73.5,58.5,44.7,56.1,48.6,40.0,88,72,46,30.18,30.09,0,0,0,0.00
2012-8-20,79.7,61.7,45.8,59.0,51.1,41.1,87,70,42,30.14,30.04,0,0,0,0.00
2012-8-21,80.4,65.2,53.7,60.5,53.9,47.2,87,69,43,30.30,30.10,5,0,5,0.00
2012-8-22,69.4,54.4,46.0,59.0,47.7,41.1,86,78,61,30.34,30.28,0,0,0,0.00
2012-8-23,84.0,65.1,50.3,62.6,53.9,45.1,87,69,43,30.34,30.29,5,0,5,0.00
2012-8-24,84.3,66.3,51.6,63.5,56.3,46.5,85,72,46,30.42,30.33,3,0,3,0.00
2012-8-25,82.2,67.6,55.9,67.2,59.5,50.7,87,76,59,30.52,30.41,5,0,5,0.00
2012-8-26,85.6,68.4,54.5,66.5,58.3,50.0,87,72,49,30.52,30.41,7,0,7,0.00
2012-8-27,85.2,67.7,51.6,65.9,58.7,46.9,88,74,51,30.42,30.11,6,0,6,0.00
2012-8-28,81.6,70.1,57.9,68.3,61.7,50.0,89,76,55,30.12,29.97,7,0,7,0.00
2012-8-29,75.5,59.3,46.0,52.9,47.6,41.1,86,67,43,30.19,30.11,5,0,5,0.00
2012-8-30,80.0,60.1,41.9,57.9,48.9,37.0,86,69,41,30.21,30.15,6,0,6,0.00
2012-8-31,85.4,66.3,50.5,64.7,55.4,45.6,86,70,40,30.18,30.01,0,0,0,0.00
2012-9-1,83.8,70.1,59.5,64.8,58.7,53.8,87,69,46,30.31,30.09,0,0,0,0.00
2012-9-2,78.6,64.6,53.7,61.1,53.6,47.2,82,69,45,30.35,30.26,0,0,0,0.00
2012-9-3,80.6,63.4,49.8,58.5,52.0,44.4,87,69,43,30.39,30.31,0,0,0,0.00
2012-9-4,65.1,62.0,57.3,60.9,57.4,51.9,89,85,76,30.32,30.04,0,0,0,0.00
2012-9-5,73.9,67.6,59.9,66.8,63.0,56.0,91,85,73,30.07,29.87,5,0,5,0.00
2012-9-6,77.7,65.8,57.0,66.5,59.8,53.6,90,82,66,30.11,30.03,8,0,8,0.00
2012-9-7,84.0,67.9,58.8,66.8,58.6,55.1,90,74,43,30.15,30.07,3,0,3,0.00
2012-9-8,80.6,67.4,58.8,66.7,61.5,54.7,89,82,56,30.09,29.78,19,0,19,0.00
2012-9-9,73.0,59.9,52.1,56.1,51.8,46.9,89,76,50,30.07,29.92,4,0,4,0.00
2012-9-10,64.4,53.8,45.1,50.1,44.9,38.8,87,73,51,30.25,30.07,6,0,6,0.00
2012-9-11,71.6,53.4,38.8,49.8,42.1,34.1,87,68,43,30.44,30.24,5,0,5,0.00
2012-9-12,79.1,56.4,38.8,56.6,45.3,33.8,86,69,43,30.51,30.43,6,0,6,0.00
2012-9-13,82.5,61.7,44.7,61.8,51.2,39.9,87,71,42,30.51,30.43,6,0,6,0.00
2012-9-14,82.4,63.5,48.5,63.5,53.2,43.8,88,71,46,30.45,30.24,5,0,5,0.00
2012-9-15,69.9,58.2,44.4,53.5,47.5,37.9,86,69,45,30.25,30.18,7,0,7,0.00
2012-9-16,67.6,50.1,37.9,47.0,38.8,32.9,86,67,38,30.25,30.17,6,0,6,0.00
2012-9-17,76.2,53.9,34.3,56.0,43.4,28.7,84,70,49,30.25,30.18,6,0,6,0.00
2012-9-18,66.3,57.1,46.5,63.6,53.1,41.4,91,86,79,30.22,29.81,20,2,20,0.00
2012-9-19,66.7,56.1,40.4,61.0,46.4,34.8,91,72,45,30.38,29.86,9,0,9,0.00
2012-9-20,66.7,48.7,34.3,47.3,39.2,29.6,88,71,47,30.42,30.30,8,0,8,0.00
2012-9-21,72.3,54.9,42.6,52.9,45.4,37.3,86,72,49,30.34,30.22,10,0,10,0.00
2012-9-22,71.2,56.8,43.8,58.4,49.9,38.7,87,78,64,30.22,29.99,8,0,8,0.00
2012-9-23,66.7,54.6,39.0,55.4,45.4,33.4,87,73,45,30.26,29.98,9,0,9,0.00
2012-9-24,61.8,44.8,31.8,46.4,35.2,27.5,88,71,45,30.28,30.20,6,0,6,0.00
2012-9-25,69.4,49.8,33.6,47.4,39.0,28.9,88,69,44,30.29,30.23,9,0,9,0.00
2012-9-26,65.1,57.6,50.7,57.5,52.4,44.6,88,83,75,30.27,30.16,8,0,8,0.00
2012-9-27,65.3,54.5,39.3,54.5,45.9,33.7,89,74,49,30.42,30.18,7,0,7,0.00
2012-9-28,50.1,45.1,36.3,46.4,41.3,31.4,90,87,81,30.43,30.19,3,0,3,0.00
2012-9-29,54.5,51.2,48.2,50.6,48.0,45.5,90,89,86,30.19,30.06,3,0,3,0.00
2012-9-30,57.5,51.9,47.8,52.8,48.5,44.3,90,88,82,30.10,29.86,3,0,3,0.00
2012-10-1,55.2,51.5,48.3,52.3,48.6,45.3,91,90,89,30.10,29.82,6,0,6,0.00
2012-10-2,62.2,53.7,45.6,56.9,50.0,42.9,92,88,80,30.23,30.09,6,0,6,0.00
2012-10-3,62.9,58.9,55.9,60.3,56.1,52.5,91,90,89,30.35,30.21,2,0,2,0.00
2012-10-4,61.5,59.4,58.1,58.9,56.8,55.3,91,91,90,30.35,30.20,3,0,3,0.00
2012-10-5,74.4,61.1,52.3,60.6,54.7,49.5,92,81,54,30.22,30.09,6,0,6,0.00
2012-10-6,69.6,56.1,43.1,59.2,50.9,38.6,91,83,67,30.09,29.88,11,0,11,0.00
2012-10-7,52.1,44.4,36.5,41.9,38.5,32.6,89,80,66,30.24,30.09,2,0,2,0.00
2012-10-8,55.9,45.2,36.6,44.1,38.8,31.9,88,79,58,30.47,30.22,6,0,6,0.00
2012-10-9,53.7,45.0,32.7,47.4,39.2,28.6,89,80,73,30.47,30.31,9,0,9,0.00
2012-10-10,53.4,49.2,44.2,50.0,44.9,39.8,89,85,80,30.32,29.91,9,0,9,0.00
2012-10-11,54.3,43.9,35.2,39.9,35.2,29.6,87,73,50,30.24,29.97,12,1,12,0.00
2012-10-12,49.1,39.1,28.0,39.7,30.3,20.9,84,72,50,30.48,30.12,11,1,11,0.00
2012-10-13,50.5,36.2,21.9,31.2,24.9,16.9,83,66,41,30.59,30.41,11,1,11,0.00
2012-10-14,53.4,46.1,37.5,49.6,41.8,28.6,89,85,62,30.42,30.07,9,0,9,0.00
2012-10-15,66.0,57.9,51.4,58.2,53.6,47.9,90,86,75,30.07,29.80,9,0,9,0.00
2012-10-16,53.6,44.6,31.8,50.2,37.7,27.2,89,77,59,30.07,29.77,11,0,11,0.00
2012-10-17,58.8,40.9,28.2,39.3,31.8,24.2,88,72,46,30.17,30.05,6,0,6,0.00
2012-10-18,65.1,48.0,32.1,45.5,37.5,27.9,87,69,45,30.26,30.17,8,1,8,0.00
2012-10-19,59.5,54.4,46.0,56.6,50.6,40.2,90,87,80,30.25,29.92,12,1,12,0.00
2012-10-20,70.3,59.6,42.9,60.8,52.8,37.5,92,79,55,29.93,29.79,7,0,7,0.00
2012-10-21,59.3,45.9,33.9,44.4,38.0,29.8,89,75,53,30.05,29.91,9,0,9,0.00
2012-10-22,61.7,47.3,35.9,44.2,38.1,31.3,88,72,49,30.20,30.04,9,1,9,0.00
2012-10-23,59.5,43.2,31.8,46.2,36.2,27.2,87,77,59,30.30,30.19,7,0,7,0.00
2012-10-24,58.8,43.9,31.2,42.4,33.6,27.3,87,69,44,30.38,30.27,5,0,5,0.00
2012-10-25,62.7,50.1,39.3,43.9,38.3,32.4,81,65,44,30.43,30.38,9,0,9,0.00
2012-10-26,63.8,52.1,44.4,53.0,45.7,37.6,85,79,67,30.40,30.28,11,0,11,0.00
2012-10-27,59.9,52.2,43.8,53.0,47.3,39.3,88,84,76,30.31,30.19,6,0,6,0.00
2012-10-28,53.4,50.4,46.0,48.2,42.3,36.6,86,74,61,30.20,30.03,11,0,11,0.00
2012-10-29,58.2,51.6,46.7,55.4,48.3,42.5,90,88,85,30.03,29.48,23,2,23,0.00
2012-10-30,62.9,57.0,50.3,56.4,52.4,46.8,90,85,71,29.76,29.49,21,3,21,0.00
2012-10-31,52.5,47.5,40.2,49.6,43.1,36.0,90,85,74,29.73,29.63,10,1,10,0.00
2012-11-1,46.2,42.7,39.9,38.7,37.3,35.7,87,82,73,29.70,29.65,6,0,6,0.00
2012-11-2,47.4,41.5,37.2,38.3,34.5,31.3,88,77,64,29.80,29.69,7,0,7,0.00
2012-11-3,44.4,39.7,36.8,33.7,31.7,29.3,79,73,63,29.97,29.80,10,0,10,0.00
2012-11-4,40.4,37.0,32.1,32.0,29.2,22.8,79,73,68,30.11,29.97,8,0,8,0.00
2012-11-5,36.5,31.8,24.6,24.9,21.1,15.4,70,64,56,30.26,30.10,11,0,11,0.00
2012-11-6,38.8,26.9,18.3,21.1,15.9,12.2,80,64,44,30.34,30.25,7,0,7,0.00
2012-11-7,31.8,27.8,19.0,19.5,17.2,12.4,79,65,55,30.34,30.02,6,0,6,0.00
2012-11-8,37.2,32.9,30.3,27.7,24.4,18.7,83,71,57,30.02,29.91,13,1,13,0.00
2012-11-9,47.1,37.0,30.5,30.0,26.7,23.3,82,67,46,30.24,30.00,13,1,13,0.00
2012-11-10,50.1,37.7,30.2,34.7,28.0,21.7,84,69,49,30.58,30.24,11,0,11,0.00
2012-11-11,57.7,44.1,30.0,42.6,35.6,23.3,83,73,56,30.58,30.51,16,1,16,0.00
2012-11-12,63.1,50.8,36.3,53.1,42.8,32.4,89,76,54,30.57,30.32,17,2,17,0.00
2012-11-13,59.9,43.1,29.4,53.6,37.7,24.6,84,81,75,30.57,30.23,26,1,26,0.00
2012-11-14,41.9,30.7,23.9,29.4,23.0,18.8,86,74,52,30.67,30.56,9,0,9,0.00
2012-11-15,40.1,27.5,20.4,28.5,20.9,15.8,84,77,58,30.62,30.44,4,0,4,0.00
2012-11-16,39.2,29.6,21.7,28.3,22.1,17.0,85,74,57,30.58,30.41,9,0,9,0.00
2012-11-17,43.7,30.4,21.7,31.0,22.6,17.0,85,73,53,30.77,30.58,12,0,12,0.00
2012-11-18,46.2,29.2,18.6,34.2,21.9,13.5,84,75,57,30.84,30.74,7,0,7,0.00
2012-11-19,45.6,28.8,17.6,34.6,20.7,12.2,83,73,51,30.74,30.38,5,0,5,0.00
2012-11-20,48.5,30.6,19.9,30.7,22.0,14.7,84,71,45,30.38,30.28,4,0,4,0.00
2012-11-21,48.0,33.0,25.5,32.7,23.8,19.0,82,70,47,30.41,30.32,4,0,4,0.00
2012-11-22,52.5,33.3,22.1,39.0,24.5,17.0,83,71,49,30.39,30.25,5,0,7,0.00
2012-11-23,54.3,38.6,23.9,37.3,29.0,18.6,85,70,49,30.25,29.77,13,1,13,0.00
2012-11-24,42.6,35.3,26.2,38.0,23.4,15.3,84,62,47,29.78,29.67,15,2,15,0.00
2012-11-25,34.3,29.1,25.5,19.4,15.5,11.7,67,57,41,29.95,29.78,18,3,18,0.00
2012-11-26,38.6,30.6,23.7,27.2,20.3,15.8,74,66,49,30.34,29.95,16,1,16,0.00
2012-11-27,23.5,23.5,23.5,16.1,16.1,16.1,73,73,73,30.33,30.33,0,0,0,0.00
2012-11-29,27.6,23.9,21.5,19.4,16.3,14.0,79,73,66,30.33,30.26,6,0,8,0.00
2012-12-6,34.3,26.1,19.7,20.4,16.3,13.4,79,67,55,30.44,30.36,13,2,13,0.00
2012-12-7,34.7,28.3,18.6,29.7,23.0,13.1,87,80,72,30.36,30.16,16,1,16,0.00
2012-12-8,38.3,35.4,32.7,35.0,32.0,29.2,89,88,87,30.17,30.00,0,0,0,0.00
2012-12-9,41.0,34.1,29.1,33.6,29.3,24.0,89,83,67,30.42,30.09,10,0,10,0.00
2012-12-10,46.4,40.9,33.8,43.7,37.9,29.6,91,89,85,30.27,29.63,13,1,13,0.00
2012-12-11,42.2,34.8,28.2,39.0,29.7,20.9,89,82,73,30.26,29.73,12,0,12,0.00
2012-12-12,37.7,27.3,19.4,25.5,19.9,14.6,84,74,60,30.53,30.26,10,0,10,0.00
2012-12-13,39.2,26.2,17.7,29.8,19.7,13.1,84,77,63,30.56,30.38,6,0,6,0.00
2012-12-14,41.7,29.0,16.7,29.6,21.4,11.8,84,74,55,30.38,30.19,22,0,22,0.00
2012-12-15,35.9,29.0,20.4,27.0,18.9,12.4,79,66,47,30.44,30.29,11,0,11,0.00
2012-12-16,26.2,24.2,20.4,21.1,17.0,13.4,82,74,68,30.41,30.21,10,1,10,0.00
2012-12-17,34.8,29.9,25.1,31.6,25.8,20.4,88,85,82,30.21,29.96,12,0,12,0.00
2012-12-18,41.0,36.2,34.3,37.6,32.9,30.7,89,88,87,29.96,29.61,8,0,8,0.00
2012-12-19,37.4,34.6,32.5,33.1,30.5,28.2,89,85,78,30.19,29.63,15,0,15,0.00
2012-12-20,35.7,32.2,28.5,28.9,26.6,24.1,85,80,75,30.32,30.09,16,1,16,0.00
2012-12-21,46.2,36.5,31.2,43.2,32.6,26.0,89,86,79,30.09,29.18,28,2,28,0.00
2012-12-22,33.9,28.5,22.4,28.9,21.0,13.1,84,73,64,29.77,29.31,11,0,11,0.00
2012-12-23,35.2,27.6,21.0,22.2,17.1,11.3,71,65,54,29.94,29.76,0,0,0,0.00
2012-12-24,32.7,26.7,21.0,23.0,16.9,13.6,75,67,53,30.17,29.94,0,0,0,0.00
2012-12-25,30.0,22.8,16.8,21.8,16.3,10.5,79,76,70,30.37,30.10,0,0,0,0.00
2012-12-26,28.5,21.0,8.7,21.6,13.3,3.3,81,72,61,30.44,30.06,0,0,0,0.00
2012-12-27,30.7,27.1,23.3,26.7,22.8,18.6,86,84,81,30.07,29.58,0,0,0,0.00
2012-12-28,30.2,24.0,19.0,22.9,18.6,14.3,83,80,73,30.15,29.81,0,0,0,0.00
2012-12-29,25.3,20.1,12.0,21.4,15.5,6.9,85,82,80,30.13,29.64,0,0,0,0.00
2012-12-30,27.1,19.1,9.6,18.6,12.3,2.6,84,75,65,30.13,29.65,10,0,10,0.00
2012-12-31,29.4,19.5,8.4,22.8,13.6,2.4,82,78,74,30.14,29.85,2,0,2,0.00
2013-1-1,30.0,22.1,5.1,24.1,13.2,-3.2,81,68,55,30.04,29.82,6,0,6,0.00